Main page
METAR-TAF:

METAR-TAF

Airports :

Sullivan County International Airport

Monticello, New York, United States

latitude: 41-42N, longitude: 074-48W, elevation: 1404 ft

Current weather observation

The report was made 27 minutes ago, at 17:56 UTC
Wind 21 mph from the West with gusts up to 32 mph
Temperature 28°F
Humidity 74%
Pressure 29.48 in. Hg
Visibility: 4 miles
Broken clouds at a height of 2600 ft
Overcast at a height of 3500 ft
light snow

METAR: KMSV 271756Z AUTO 28018G28KT 4SM -SN BKN026 OVC035 M02/M06 A2948 RMK AO2 PK WND 27030/1727 SLP996 P0000 60004 T10221061 10006 21022 50018 FZRANO

Time: 13:23 (18:23 UTC)


TAF: missing

Weather observations and forecasts of more than 4000 airports (METAR and TAF reports).

The available stations are represented by yellow and red dots on the map.

Hover mouse over dot to see the name of the station.

Then click to see weather observations and forecasts.

To change the map : click on the green buttons with a black cross to zoom in, on the green button with a dash to zoom out, or on the green arrows for adjacent maps.


METAR-TAF: